Time,TemperatureF,DewpointF,PressureIn,WindDirection,WindDirectionDegrees,WindSpeedMPH,WindSpeedGustMPH,Humidity,HourlyPrecipIn,Conditions,Clouds,dailyrainin,SolarRadiationWatts/m^2,SoftwareType,DateUTC
2013-02-05 00:03:00,40.0,39.0,-100.00,WSW,249,10.0,23.0,95,0.01,,,0.35,0.000000,,2013-02-05 05:03:00,
2013-02-05 00:32:00,40.0,39.0,-100.00,WSW,242,8.0,19.0,96,0.01,,,0.36,0.000000,,2013-02-05 05:32:00,
2013-02-05 00:42:00,40.0,39.0,-100.00,WSW,242,8.0,19.0,96,0.01,,,0.36,0.000000,,2013-02-05 05:42:00,
2013-02-05 00:52:00,40.0,39.0,-100.00,WSW,242,8.0,19.0,96,0.01,,,0.36,0.000000,,2013-02-05 05:52:00,
2013-02-05 01:02:00,40.0,39.0,-100.00,WSW,242,8.0,19.0,96,0.01,,,0.36,0.000000,,2013-02-05 06:02:00,
2013-02-05 01:32:00,41.0,39.0,-100.00,WSW,242,8.0,16.0,94,0.01,,,0.37,0.000000,,2013-02-05 06:32:00,
2013-02-05 01:42:00,41.0,39.0,-100.00,WSW,242,8.0,16.0,94,0.01,,,0.37,0.000000,,2013-02-05 06:42:00,
2013-02-05 01:52:00,41.0,39.0,-100.00,WSW,242,8.0,16.0,94,0.01,,,0.37,0.000000,,2013-02-05 06:52:00,
2013-02-05 02:01:00,41.0,39.0,-100.00,WSW,242,8.0,16.0,94,0.01,,,0.37,0.000000,,2013-02-05 07:01:00,
2013-02-05 02:32:00,41.0,39.0,-100.00,WSW,239,8.0,14.0,94,0.00,,,0.37,0.000000,,2013-02-05 07:32:00,
2013-02-05 02:42:00,41.0,39.0,-100.00,WSW,239,8.0,14.0,94,0.00,,,0.37,0.000000,,2013-02-05 07:42:00,
2013-02-05 02:52:00,41.0,39.0,-100.00,WSW,239,8.0,14.0,94,0.00,,,0.37,0.000000,,2013-02-05 07:52:00,
2013-02-05 03:01:00,41.0,39.0,-100.00,WSW,239,8.0,14.0,94,0.00,,,0.37,0.000000,,2013-02-05 08:01:00,
2013-02-05 03:32:00,41.0,39.0,-100.00,WSW,243,7.0,13.0,92,0.00,,,0.37,0.000000,,2013-02-05 08:32:00,
2013-02-05 03:42:00,41.0,39.0,-100.00,WSW,243,7.0,13.0,92,0.00,,,0.37,0.000000,,2013-02-05 08:42:00,
2013-02-05 03:52:00,41.0,39.0,-100.00,WSW,243,7.0,13.0,92,0.00,,,0.37,0.000000,,2013-02-05 08:52:00,
2013-02-05 04:02:00,41.0,39.0,-100.00,WSW,243,7.0,13.0,92,0.00,,,0.37,0.000000,,2013-02-05 09:02:00,
2013-02-05 04:32:00,40.0,38.0,-100.00,SSW,202,5.0,10.0,93,0.00,,,0.37,0.000000,,2013-02-05 09:32:00,
2013-02-05 04:42:00,40.0,38.0,-100.00,SSW,202,5.0,10.0,93,0.00,,,0.37,0.000000,,2013-02-05 09:42:00,
2013-02-05 04:52:00,40.0,38.0,-100.00,SSW,202,5.0,10.0,93,0.00,,,0.37,0.000000,,2013-02-05 09:52:00,
2013-02-05 05:02:00,40.0,38.0,-100.00,SSW,202,5.0,10.0,93,0.00,,,0.37,0.000000,,2013-02-05 10:02:00,
2013-02-05 05:32:00,39.0,38.0,-100.00,SW,225,5.0,11.0,97,0.00,,,0.37,0.000000,,2013-02-05 10:32:00,
2013-02-05 05:42:00,39.0,38.0,-100.00,SW,225,5.0,11.0,97,0.00,,,0.37,0.000000,,2013-02-05 10:42:00,
2013-02-05 05:52:00,39.0,38.0,-100.00,SW,225,5.0,11.0,97,0.00,,,0.37,0.000000,,2013-02-05 10:52:00,
2013-02-05 06:01:00,39.0,38.0,-100.00,SW,225,5.0,11.0,97,0.00,,,0.37,0.000000,,2013-02-05 11:01:00,
2013-02-05 06:32:00,39.0,38.0,-100.00,SW,231,6.0,9.0,98,0.00,,,0.37,0.000000,,2013-02-05 11:32:00,
2013-02-05 06:42:00,39.0,38.0,-100.00,SW,231,6.0,9.0,98,0.00,,,0.37,0.000000,,2013-02-05 11:42:00,
2013-02-05 06:52:00,39.0,38.0,-100.00,SW,231,6.0,9.0,98,0.00,,,0.37,0.000000,,2013-02-05 11:52:00,
2013-02-05 07:02:00,39.0,38.0,-100.00,SW,231,6.0,9.0,98,0.00,,,0.37,0.000000,,2013-02-05 12:02:00,
2013-02-05 07:32:00,40.0,39.0,-100.00,SW,225,6.0,9.0,98,0.00,,,0.37,0.000000,,2013-02-05 12:32:00,
2013-02-05 07:42:00,40.0,39.0,-100.00,SW,225,6.0,9.0,98,0.00,,,0.37,0.000000,,2013-02-05 12:42:00,
2013-02-05 07:52:00,40.0,39.0,-100.00,SW,225,6.0,9.0,98,0.00,,,0.37,0.000000,,2013-02-05 12:52:00,
2013-02-05 08:02:00,40.0,39.0,-100.00,SW,225,6.0,9.0,98,0.00,,,0.37,0.000000,,2013-02-05 13:02:00,
2013-02-05 08:32:00,40.0,39.0,-100.00,SW,224,6.0,10.0,97,0.00,,,0.37,0.000000,,2013-02-05 13:32:00,
2013-02-05 08:42:00,40.0,39.0,-100.00,SW,224,6.0,10.0,97,0.00,,,0.37,0.000000,,2013-02-05 13:42:00,
2013-02-05 08:52:00,40.0,39.0,-100.00,SW,224,6.0,10.0,97,0.00,,,0.37,0.000000,,2013-02-05 13:52:00,
2013-02-05 09:01:00,40.0,39.0,-100.00,SW,224,6.0,10.0,97,0.00,,,0.37,0.000000,,2013-02-05 14:01:00,
2013-02-05 09:32:00,40.0,38.0,-100.00,SW,230,7.0,11.0,93,0.00,,,0.37,9.000000,,2013-02-05 14:32:00,
2013-02-05 09:42:00,40.0,38.0,-100.00,SW,230,7.0,11.0,93,0.00,,,0.37,9.000000,,2013-02-05 14:42:00,
2013-02-05 09:52:00,40.0,38.0,-100.00,SW,230,7.0,11.0,93,0.00,,,0.37,9.000000,,2013-02-05 14:52:00,
2013-02-05 10:02:00,40.0,38.0,-100.00,SW,230,7.0,11.0,93,0.00,,,0.37,9.000000,,2013-02-05 15:02:00,
2013-02-05 10:32:00,41.0,38.0,-100.00,WSW,241,6.0,11.0,90,0.00,,,0.36,31.000000,,2013-02-05 15:32:00,
2013-02-05 10:42:00,41.0,38.0,-100.00,WSW,241,6.0,11.0,90,0.00,,,0.36,31.000000,,2013-02-05 15:42:00,
2013-02-05 10:52:00,41.0,38.0,-100.00,WSW,241,6.0,11.0,90,0.00,,,0.36,31.000000,,2013-02-05 15:52:00,
2013-02-05 11:01:00,41.0,38.0,-100.00,WSW,241,6.0,11.0,90,0.00,,,0.36,31.000000,,2013-02-05 16:01:00,
2013-02-05 11:33:00,41.0,40.0,-100.00,WSW,253,8.0,13.0,95,0.00,,,-99.99,50.000000,,2013-02-05 16:33:00,
2013-02-05 11:42:00,41.0,40.0,-100.00,WSW,253,8.0,13.0,95,0.00,,,-99.99,50.000000,,2013-02-05 16:42:00,
2013-02-05 11:52:00,41.0,40.0,-100.00,WSW,253,8.0,13.0,95,0.00,,,-99.99,50.000000,,2013-02-05 16:52:00,
2013-02-05 12:01:00,41.0,40.0,-100.00,WSW,253,8.0,13.0,95,0.00,,,-99.99,50.000000,,2013-02-05 17:01:00,
2013-02-05 12:33:00,46.0,40.0,-100.00,WSW,245,10.0,17.0,80,0.00,,,-99.99,268.000000,,2013-02-05 17:33:00,
2013-02-05 12:42:00,46.0,40.0,-100.00,WSW,245,10.0,17.0,80,0.00,,,-99.99,268.000000,,2013-02-05 17:42:00,
2013-02-05 12:52:00,46.0,40.0,-100.00,WSW,245,10.0,17.0,80,0.00,,,-99.99,268.000000,,2013-02-05 17:52:00,
2013-02-05 13:02:00,46.0,40.0,-100.00,WSW,245,10.0,17.0,80,0.00,,,-99.99,268.000000,,2013-02-05 18:02:00,
2013-02-05 13:32:00,46.0,38.0,-100.00,WSW,253,10.0,21.0,73,0.00,,,0.30,399.000000,,2013-02-05 18:32:00,
2013-02-05 13:42:00,46.0,38.0,-100.00,WSW,253,10.0,21.0,73,0.00,,,0.30,399.000000,,2013-02-05 18:42:00,
2013-02-05 13:52:00,46.0,38.0,-100.00,WSW,253,10.0,21.0,73,0.00,,,0.30,399.000000,,2013-02-05 18:52:00,
2013-02-05 14:02:00,46.0,38.0,-100.00,WSW,253,10.0,21.0,73,0.00,,,0.30,399.000000,,2013-02-05 19:02:00,
2013-02-05 14:32:00,50.0,37.0,-100.00,WSW,253,11.0,22.0,60,0.00,,,0.21,567.000000,,2013-02-05 19:32:00,
2013-02-05 14:42:00,50.0,37.0,-100.00,WSW,253,11.0,22.0,60,0.00,,,0.21,567.000000,,2013-02-05 19:42:00,
2013-02-05 14:52:00,50.0,37.0,-100.00,WSW,253,11.0,22.0,60,0.00,,,0.21,567.000000,,2013-02-05 19:52:00,
2013-02-05 15:02:00,50.0,37.0,-100.00,WSW,253,11.0,22.0,60,0.00,,,0.21,567.000000,,2013-02-05 20:02:00,
2013-02-05 15:32:00,51.0,34.0,-100.00,WSW,243,10.0,19.0,52,0.00,,,-99.99,539.000000,,2013-02-05 20:32:00,
2013-02-05 15:42:00,51.0,34.0,-100.00,WSW,243,10.0,19.0,52,0.00,,,-99.99,539.000000,,2013-02-05 20:42:00,
2013-02-05 15:52:00,51.0,34.0,-100.00,WSW,243,10.0,19.0,52,0.00,,,-99.99,539.000000,,2013-02-05 20:52:00,
2013-02-05 16:02:00,51.0,34.0,-100.00,WSW,243,10.0,19.0,52,0.00,,,-99.99,539.000000,,2013-02-05 21:02:00,
2013-02-05 16:32:00,51.0,34.0,-100.00,WSW,246,6.0,16.0,52,0.00,,,0.16,319.000000,,2013-02-05 21:32:00,
2013-02-05 16:42:00,51.0,34.0,-100.00,WSW,246,6.0,16.0,52,0.00,,,0.16,319.000000,,2013-02-05 21:42:00,
2013-02-05 16:52:00,51.0,34.0,-100.00,WSW,246,6.0,16.0,52,0.00,,,0.16,319.000000,,2013-02-05 21:52:00,
2013-02-05 17:02:00,51.0,34.0,-100.00,WSW,246,6.0,16.0,52,0.00,,,0.16,319.000000,,2013-02-05 22:02:00,
2013-02-05 17:32:00,49.0,32.0,-100.00,SW,232,9.0,22.0,52,0.00,,,0.16,109.000000,,2013-02-05 22:32:00,
2013-02-05 17:42:00,49.0,32.0,-100.00,SW,232,9.0,22.0,52,0.00,,,0.16,109.000000,,2013-02-05 22:42:00,
2013-02-05 17:52:00,49.0,32.0,-100.00,SW,232,9.0,22.0,52,0.00,,,0.16,109.000000,,2013-02-05 22:52:00,
2013-02-05 18:02:00,49.0,32.0,-100.00,SW,232,9.0,22.0,52,0.00,,,0.16,109.000000,,2013-02-05 23:02:00,
2013-02-05 18:33:00,47.0,32.0,-100.00,SW,228,6.0,18.0,56,0.00,,,0.16,25.000000,,2013-02-05 23:33:00,
2013-02-05 18:42:00,47.0,32.0,-100.00,SW,228,6.0,18.0,56,0.00,,,0.16,25.000000,,2013-02-05 23:42:00,
2013-02-05 18:53:00,47.0,32.0,-100.00,SW,228,6.0,18.0,56,0.00,,,0.16,25.000000,,2013-02-05 23:53:00,
2013-02-05 19:02:00,47.0,32.0,-100.00,SW,228,6.0,18.0,56,0.00,,,0.16,25.000000,,2013-02-06 00:02:00,
2013-02-05 19:32:00,46.0,32.0,-100.00,SW,224,6.0,9.0,59,0.00,,,0.16,0.000000,,2013-02-06 00:32:00,
2013-02-05 19:42:00,46.0,32.0,-100.00,SW,224,6.0,9.0,59,0.00,,,0.16,0.000000,,2013-02-06 00:42:00,
2013-02-05 19:52:00,46.0,32.0,-100.00,SW,224,6.0,9.0,59,0.00,,,0.16,0.000000,,2013-02-06 00:52:00,
2013-02-05 20:02:00,46.0,32.0,-100.00,SW,224,6.0,9.0,59,0.00,,,0.16,0.000000,,2013-02-06 01:02:00,
2013-02-05 20:33:00,46.0,34.0,-100.00,WSW,237,8.0,10.0,62,0.00,,,0.15,0.000000,,2013-02-06 01:33:00,
2013-02-05 20:42:00,46.0,34.0,-100.00,WSW,237,8.0,10.0,62,0.00,,,0.15,0.000000,,2013-02-06 01:42:00,
2013-02-05 20:53:00,46.0,34.0,-100.00,WSW,237,8.0,10.0,62,0.00,,,0.15,0.000000,,2013-02-06 01:53:00,
2013-02-05 21:02:00,46.0,34.0,-100.00,WSW,237,8.0,10.0,62,0.00,,,0.15,0.000000,,2013-02-06 02:02:00,
2013-02-05 21:32:00,47.0,33.0,-100.00,WSW,252,10.0,17.0,59,0.00,,,0.11,0.000000,,2013-02-06 02:32:00,
2013-02-05 21:42:00,47.0,33.0,-100.00,WSW,252,10.0,17.0,59,0.00,,,0.11,0.000000,,2013-02-06 02:42:00,
2013-02-05 21:53:00,47.0,33.0,-100.00,WSW,252,10.0,17.0,59,0.00,,,0.11,0.000000,,2013-02-06 02:53:00,
2013-02-05 22:03:00,47.0,33.0,-100.00,WSW,252,10.0,17.0,59,0.00,,,0.11,0.000000,,2013-02-06 03:03:00,
2013-02-05 22:33:00,46.0,32.0,-100.00,West,274,9.0,17.0,57,0.00,,,0.03,0.000000,,2013-02-06 03:33:00,
2013-02-05 22:42:00,46.0,32.0,-100.00,West,274,9.0,17.0,57,0.00,,,0.03,0.000000,,2013-02-06 03:42:00,
2013-02-05 22:53:00,46.0,32.0,-100.00,West,274,9.0,17.0,57,0.00,,,0.03,0.000000,,2013-02-06 03:53:00,
2013-02-05 23:02:00,46.0,32.0,-100.00,West,274,9.0,17.0,57,0.00,,,0.03,0.000000,,2013-02-06 04:02:00,
2013-02-05 23:32:00,44.0,32.0,-100.00,WNW,282,10.0,19.0,62,0.00,,,0.02,0.000000,,2013-02-06 04:32:00,
2013-02-05 23:42:00,44.0,32.0,-100.00,WNW,282,10.0,19.0,62,0.00,,,0.02,0.000000,,2013-02-06 04:42:00,
2013-02-05 23:52:00,44.0,32.0,-100.00,WNW,282,10.0,19.0,62,0.00,,,0.02,0.000000,,2013-02-06 04:52:00,